sensor_id;sensor_type;location;lat;lon;timestamp;P1;durP1;ratioP1;P2;durP2;ratioP2
31818;SDS011;18384;48.860;9.188;2024-03-07T00:02:40;43.92;;;22.30;;
31818;SDS011;18384;48.860;9.188;2024-03-07T00:05:14;40.33;;;22.70;;
31818;SDS011;18384;48.860;9.188;2024-03-07T00:07:41;43.42;;;23.23;;
31818;SDS011;18384;48.860;9.188;2024-03-07T00:10:07;38.38;;;22.83;;
31818;SDS011;18384;48.860;9.188;2024-03-07T00:12:35;45.30;;;24.25;;
31818;SDS011;18384;48.860;9.188;2024-03-07T00:15:08;44.25;;;23.27;;
31818;SDS011;18384;48.860;9.188;2024-03-07T00:17:36;40.20;;;22.10;;
31818;SDS011;18384;48.860;9.188;2024-03-07T00:20:03;43.10;;;23.80;;
31818;SDS011;18384;48.860;9.188;2024-03-07T00:22:34;38.55;;;22.13;;
31818;SDS011;18384;48.860;9.188;2024-03-07T00:25:01;39.15;;;22.48;;
31818;SDS011;18384;48.860;9.188;2024-03-07T00:27:31;43.53;;;24.12;;
31818;SDS011;18384;48.860;9.188;2024-03-07T00:29:58;43.08;;;22.77;;
31818;SDS011;18384;48.860;9.188;2024-03-07T00:32:24;39.97;;;23.55;;
31818;SDS011;18384;48.860;9.188;2024-03-07T00:34:54;41.28;;;22.92;;
31818;SDS011;18384;48.860;9.188;2024-03-07T00:37:22;42.90;;;25.37;;
31818;SDS011;18384;48.860;9.188;2024-03-07T00:39:50;39.78;;;25.42;;
31818;SDS011;18384;48.860;9.188;2024-03-07T00:42:16;44.58;;;26.45;;
31818;SDS011;18384;48.860;9.188;2024-03-07T00:47:08;45.10;;;25.77;;
31818;SDS011;18384;48.860;9.188;2024-03-07T00:49:34;46.20;;;26.33;;
31818;SDS011;18384;48.860;9.188;2024-03-07T00:52:01;47.17;;;25.48;;
31818;SDS011;18384;48.860;9.188;2024-03-07T00:54:27;46.67;;;26.35;;
31818;SDS011;18384;48.860;9.188;2024-03-07T00:56:53;53.42;;;28.10;;
31818;SDS011;18384;48.860;9.188;2024-03-07T00:59:20;48.28;;;26.87;;
31818;SDS011;18384;48.860;9.188;2024-03-07T01:01:46;47.95;;;27.58;;
31818;SDS011;18384;48.860;9.188;2024-03-07T01:04:14;43.75;;;27.65;;
31818;SDS011;18384;48.860;9.188;2024-03-07T01:06:40;43.63;;;25.52;;
31818;SDS011;18384;48.860;9.188;2024-03-07T01:09:06;45.00;;;26.85;;
31818;SDS011;18384;48.860;9.188;2024-03-07T01:11:39;48.72;;;28.20;;
31818;SDS011;18384;48.860;9.188;2024-03-07T01:14:07;46.65;;;28.27;;
31818;SDS011;18384;48.860;9.188;2024-03-07T01:16:33;50.42;;;27.00;;
31818;SDS011;18384;48.860;9.188;2024-03-07T01:19:00;45.63;;;27.50;;
31818;SDS011;18384;48.860;9.188;2024-03-07T01:21:27;50.65;;;27.92;;
31818;SDS011;18384;48.860;9.188;2024-03-07T01:23:53;47.17;;;28.05;;
31818;SDS011;18384;48.860;9.188;2024-03-07T01:26:19;46.78;;;27.83;;
31818;SDS011;18384;48.860;9.188;2024-03-07T01:28:45;49.13;;;29.02;;
31818;SDS011;18384;48.860;9.188;2024-03-07T01:31:11;49.83;;;30.12;;
31818;SDS011;18384;48.860;9.188;2024-03-07T01:33:38;48.78;;;27.02;;
31818;SDS011;18384;48.860;9.188;2024-03-07T01:38:31;46.37;;;27.85;;
31818;SDS011;18384;48.860;9.188;2024-03-07T01:40:57;47.78;;;28.48;;
31818;SDS011;18384;48.860;9.188;2024-03-07T01:43:24;50.95;;;28.23;;
31818;SDS011;18384;48.860;9.188;2024-03-07T01:45:50;54.53;;;30.27;;
31818;SDS011;18384;48.860;9.188;2024-03-07T01:48:24;47.72;;;27.98;;
31818;SDS011;18384;48.860;9.188;2024-03-07T01:50:54;47.92;;;28.12;;
31818;SDS011;18384;48.860;9.188;2024-03-07T01:53:22;45.95;;;27.50;;
31818;SDS011;18384;48.860;9.188;2024-03-07T01:55:50;47.58;;;29.33;;
31818;SDS011;18384;48.860;9.188;2024-03-07T01:58:17;49.28;;;29.42;;
31818;SDS011;18384;48.860;9.188;2024-03-07T02:00:45;51.13;;;28.92;;
31818;SDS011;18384;48.860;9.188;2024-03-07T02:03:11;53.83;;;28.90;;
31818;SDS011;18384;48.860;9.188;2024-03-07T02:05:40;53.55;;;30.58;;
31818;SDS011;18384;48.860;9.188;2024-03-07T02:08:07;52.83;;;30.33;;
31818;SDS011;18384;48.860;9.188;2024-03-07T02:10:33;52.40;;;30.60;;
31818;SDS011;18384;48.860;9.188;2024-03-07T02:12:59;47.62;;;29.77;;
31818;SDS011;18384;48.860;9.188;2024-03-07T02:15:28;48.22;;;29.33;;
31818;SDS011;18384;48.860;9.188;2024-03-07T02:17:54;53.00;;;29.87;;
31818;SDS011;18384;48.860;9.188;2024-03-07T02:20:20;53.45;;;30.95;;
31818;SDS011;18384;48.860;9.188;2024-03-07T02:22:47;55.12;;;31.02;;
31818;SDS011;18384;48.860;9.188;2024-03-07T02:25:13;47.00;;;29.05;;
31818;SDS011;18384;48.860;9.188;2024-03-07T02:27:41;62.80;;;30.45;;
31818;SDS011;18384;48.860;9.188;2024-03-07T02:30:07;57.10;;;31.23;;
31818;SDS011;18384;48.860;9.188;2024-03-07T02:32:34;56.85;;;29.85;;
31818;SDS011;18384;48.860;9.188;2024-03-07T02:35:02;52.88;;;30.62;;
31818;SDS011;18384;48.860;9.188;2024-03-07T02:37:30;51.85;;;31.58;;
31818;SDS011;18384;48.860;9.188;2024-03-07T02:39:56;57.83;;;30.52;;
31818;SDS011;18384;48.860;9.188;2024-03-07T02:42:22;54.72;;;31.65;;
31818;SDS011;18384;48.860;9.188;2024-03-07T02:44:48;51.13;;;30.23;;
31818;SDS011;18384;48.860;9.188;2024-03-07T02:47:14;54.10;;;31.10;;
31818;SDS011;18384;48.860;9.188;2024-03-07T02:49:40;55.17;;;30.62;;
31818;SDS011;18384;48.860;9.188;2024-03-07T02:52:07;57.50;;;30.58;;
31818;SDS011;18384;48.860;9.188;2024-03-07T02:57:00;50.83;;;29.83;;
31818;SDS011;18384;48.860;9.188;2024-03-07T02:59:26;52.38;;;29.95;;
31818;SDS011;18384;48.860;9.188;2024-03-07T03:01:52;54.85;;;31.90;;
31818;SDS011;18384;48.860;9.188;2024-03-07T03:04:18;52.30;;;30.90;;
31818;SDS011;18384;48.860;9.188;2024-03-07T03:06:44;60.45;;;31.80;;
31818;SDS011;18384;48.860;9.188;2024-03-07T03:09:11;52.10;;;30.52;;
31818;SDS011;18384;48.860;9.188;2024-03-07T03:11:42;57.58;;;33.58;;
31818;SDS011;18384;48.860;9.188;2024-03-07T03:14:09;58.65;;;32.53;;
31818;SDS011;18384;48.860;9.188;2024-03-07T03:16:40;55.67;;;30.48;;
31818;SDS011;18384;48.860;9.188;2024-03-07T03:19:08;56.75;;;32.25;;
31818;SDS011;18384;48.860;9.188;2024-03-07T03:24:00;51.13;;;29.20;;
31818;SDS011;18384;48.860;9.188;2024-03-07T03:26:27;57.03;;;31.27;;
31818;SDS011;18384;48.860;9.188;2024-03-07T03:28:54;50.92;;;29.70;;
31818;SDS011;18384;48.860;9.188;2024-03-07T03:31:20;56.35;;;33.45;;
31818;SDS011;18384;48.860;9.188;2024-03-07T03:33:46;52.50;;;30.17;;
31818;SDS011;18384;48.860;9.188;2024-03-07T03:36:13;51.65;;;32.05;;
31818;SDS011;18384;48.860;9.188;2024-03-07T03:38:39;54.25;;;31.80;;
31818;SDS011;18384;48.860;9.188;2024-03-07T03:41:06;49.83;;;31.12;;
31818;SDS011;18384;48.860;9.188;2024-03-07T03:43:32;53.15;;;30.73;;
31818;SDS011;18384;48.860;9.188;2024-03-07T03:45:58;52.08;;;30.90;;
31818;SDS011;18384;48.860;9.188;2024-03-07T03:48:25;52.33;;;31.92;;
31818;SDS011;18384;48.860;9.188;2024-03-07T03:50:52;57.62;;;32.42;;
31818;SDS011;18384;48.860;9.188;2024-03-07T03:53:19;53.90;;;31.02;;
31818;SDS011;18384;48.860;9.188;2024-03-07T03:55:45;55.47;;;31.62;;
31818;SDS011;18384;48.860;9.188;2024-03-07T03:58:11;53.33;;;31.23;;
31818;SDS011;18384;48.860;9.188;2024-03-07T04:00:37;56.37;;;33.17;;
31818;SDS011;18384;48.860;9.188;2024-03-07T04:03:04;52.53;;;32.55;;
31818;SDS011;18384;48.860;9.188;2024-03-07T04:05:31;56.55;;;31.15;;
31818;SDS011;18384;48.860;9.188;2024-03-07T04:07:57;50.33;;;30.45;;
31818;SDS011;18384;48.860;9.188;2024-03-07T04:10:23;57.67;;;31.23;;
31818;SDS011;18384;48.860;9.188;2024-03-07T04:12:49;51.17;;;30.20;;
31818;SDS011;18384;48.860;9.188;2024-03-07T04:15:16;52.17;;;31.17;;
31818;SDS011;18384;48.860;9.188;2024-03-07T04:17:43;54.25;;;29.75;;
31818;SDS011;18384;48.860;9.188;2024-03-07T04:20:12;53.90;;;31.10;;
31818;SDS011;18384;48.860;9.188;2024-03-07T04:22:38;52.95;;;29.27;;
31818;SDS011;18384;48.860;9.188;2024-03-07T04:25:05;54.30;;;29.65;;
31818;SDS011;18384;48.860;9.188;2024-03-07T04:27:36;52.75;;;30.05;;
31818;SDS011;18384;48.860;9.188;2024-03-07T04:30:08;52.33;;;29.52;;
31818;SDS011;18384;48.860;9.188;2024-03-07T04:32:36;55.72;;;31.90;;
31818;SDS011;18384;48.860;9.188;2024-03-07T04:35:03;51.95;;;29.83;;
31818;SDS011;18384;48.860;9.188;2024-03-07T04:37:33;56.15;;;29.98;;
31818;SDS011;18384;48.860;9.188;2024-03-07T04:40:05;56.03;;;29.87;;
31818;SDS011;18384;48.860;9.188;2024-03-07T04:42:44;49.92;;;29.50;;
31818;SDS011;18384;48.860;9.188;2024-03-07T04:45:12;51.53;;;28.52;;
31818;SDS011;18384;48.860;9.188;2024-03-07T04:47:39;52.53;;;30.20;;
31818;SDS011;18384;48.860;9.188;2024-03-07T04:50:06;56.53;;;30.25;;
31818;SDS011;18384;48.860;9.188;2024-03-07T04:52:39;49.55;;;29.15;;
31818;SDS011;18384;48.860;9.188;2024-03-07T04:55:06;48.72;;;28.67;;
31818;SDS011;18384;48.860;9.188;2024-03-07T04:57:36;51.03;;;28.95;;
31818;SDS011;18384;48.860;9.188;2024-03-07T05:00:08;47.45;;;27.98;;
31818;SDS011;18384;48.860;9.188;2024-03-07T05:02:39;50.28;;;28.20;;
31818;SDS011;18384;48.860;9.188;2024-03-07T05:05:06;50.80;;;27.77;;
31818;SDS011;18384;48.860;9.188;2024-03-07T05:10:01;46.37;;;27.95;;
31818;SDS011;18384;48.860;9.188;2024-03-07T05:12:31;47.90;;;29.08;;
31818;SDS011;18384;48.860;9.188;2024-03-07T05:14:58;48.42;;;28.42;;
31818;SDS011;18384;48.860;9.188;2024-03-07T05:17:24;53.33;;;28.30;;
31818;SDS011;18384;48.860;9.188;2024-03-07T05:19:51;45.88;;;27.65;;
31818;SDS011;18384;48.860;9.188;2024-03-07T05:22:17;47.08;;;27.92;;
31818;SDS011;18384;48.860;9.188;2024-03-07T05:24:45;50.75;;;26.15;;
31818;SDS011;18384;48.860;9.188;2024-03-07T05:27:11;52.53;;;28.00;;
31818;SDS011;18384;48.860;9.188;2024-03-07T05:29:38;45.30;;;27.33;;
31818;SDS011;18384;48.860;9.188;2024-03-07T05:32:25;48.22;;;27.58;;
31818;SDS011;18384;48.860;9.188;2024-03-07T05:34:52;49.95;;;27.23;;
31818;SDS011;18384;48.860;9.188;2024-03-07T05:37:19;49.72;;;27.87;;
31818;SDS011;18384;48.860;9.188;2024-03-07T05:39:49;45.88;;;26.85;;
31818;SDS011;18384;48.860;9.188;2024-03-07T05:42:16;51.25;;;26.00;;
31818;SDS011;18384;48.860;9.188;2024-03-07T05:47:09;45.55;;;25.30;;
31818;SDS011;18384;48.860;9.188;2024-03-07T05:49:35;41.30;;;23.80;;
31818;SDS011;18384;48.860;9.188;2024-03-07T05:52:04;46.65;;;25.65;;
31818;SDS011;18384;48.860;9.188;2024-03-07T05:54:33;43.22;;;25.55;;
31818;SDS011;18384;48.860;9.188;2024-03-07T05:57:01;50.50;;;25.00;;
31818;SDS011;18384;48.860;9.188;2024-03-07T05:59:27;50.67;;;26.60;;
31818;SDS011;18384;48.860;9.188;2024-03-07T06:01:54;43.85;;;23.77;;
31818;SDS011;18384;48.860;9.188;2024-03-07T06:04:21;41.40;;;25.20;;
31818;SDS011;18384;48.860;9.188;2024-03-07T06:06:47;45.83;;;25.05;;
31818;SDS011;18384;48.860;9.188;2024-03-07T06:09:13;43.20;;;25.40;;
31818;SDS011;18384;48.860;9.188;2024-03-07T06:11:46;43.22;;;24.73;;
31818;SDS011;18384;48.860;9.188;2024-03-07T06:14:14;43.40;;;24.73;;
31818;SDS011;18384;48.860;9.188;2024-03-07T06:16:41;42.72;;;24.15;;
31818;SDS011;18384;48.860;9.188;2024-03-07T06:19:08;41.30;;;24.90;;
31818;SDS011;18384;48.860;9.188;2024-03-07T06:21:35;41.95;;;24.73;;
31818;SDS011;18384;48.860;9.188;2024-03-07T06:24:09;43.10;;;24.75;;
31818;SDS011;18384;48.860;9.188;2024-03-07T06:26:37;42.67;;;23.60;;
31818;SDS011;18384;48.860;9.188;2024-03-07T06:29:15;38.60;;;22.17;;
31818;SDS011;18384;48.860;9.188;2024-03-07T06:31:45;39.17;;;23.10;;
31818;SDS011;18384;48.860;9.188;2024-03-07T06:34:12;44.25;;;23.15;;
31818;SDS011;18384;48.860;9.188;2024-03-07T06:36:39;37.25;;;23.58;;
31818;SDS011;18384;48.860;9.188;2024-03-07T06:39:08;38.28;;;23.17;;
31818;SDS011;18384;48.860;9.188;2024-03-07T06:41:37;41.20;;;22.95;;
31818;SDS011;18384;48.860;9.188;2024-03-07T06:44:04;42.10;;;22.98;;
31818;SDS011;18384;48.860;9.188;2024-03-07T06:48:57;40.38;;;22.62;;
31818;SDS011;18384;48.860;9.188;2024-03-07T06:53:50;38.40;;;22.33;;
31818;SDS011;18384;48.860;9.188;2024-03-07T06:56:16;49.38;;;23.83;;
31818;SDS011;18384;48.860;9.188;2024-03-07T06:58:42;37.70;;;23.42;;
31818;SDS011;18384;48.860;9.188;2024-03-07T07:01:13;38.33;;;23.83;;
31818;SDS011;18384;48.860;9.188;2024-03-07T07:03:43;39.80;;;22.80;;
31818;SDS011;18384;48.860;9.188;2024-03-07T07:06:09;41.88;;;23.55;;
31818;SDS011;18384;48.860;9.188;2024-03-07T07:08:36;40.40;;;23.98;;
31818;SDS011;18384;48.860;9.188;2024-03-07T07:11:02;39.72;;;22.80;;
31818;SDS011;18384;48.860;9.188;2024-03-07T07:13:29;40.72;;;23.67;;
31818;SDS011;18384;48.860;9.188;2024-03-07T07:15:56;40.67;;;22.85;;
31818;SDS011;18384;48.860;9.188;2024-03-07T07:18:22;41.35;;;21.95;;
31818;SDS011;18384;48.860;9.188;2024-03-07T07:20:49;36.83;;;22.25;;
31818;SDS011;18384;48.860;9.188;2024-03-07T07:23:17;39.80;;;23.02;;
31818;SDS011;18384;48.860;9.188;2024-03-07T07:25:45;43.60;;;24.73;;
31818;SDS011;18384;48.860;9.188;2024-03-07T07:28:11;46.17;;;23.20;;
31818;SDS011;18384;48.860;9.188;2024-03-07T07:30:38;38.03;;;22.17;;
31818;SDS011;18384;48.860;9.188;2024-03-07T07:35:30;36.95;;;20.75;;
31818;SDS011;18384;48.860;9.188;2024-03-07T07:37:58;35.60;;;21.12;;
31818;SDS011;18384;48.860;9.188;2024-03-07T07:40:25;37.72;;;21.02;;
31818;SDS011;18384;48.860;9.188;2024-03-07T07:42:53;38.28;;;20.92;;
31818;SDS011;18384;48.860;9.188;2024-03-07T07:45:20;38.50;;;21.33;;
31818;SDS011;18384;48.860;9.188;2024-03-07T07:47:48;31.83;;;20.55;;
31818;SDS011;18384;48.860;9.188;2024-03-07T07:50:21;38.75;;;21.62;;
31818;SDS011;18384;48.860;9.188;2024-03-07T07:52:55;36.38;;;21.12;;
31818;SDS011;18384;48.860;9.188;2024-03-07T07:55:23;35.00;;;20.45;;
31818;SDS011;18384;48.860;9.188;2024-03-07T07:57:56;36.78;;;20.98;;
31818;SDS011;18384;48.860;9.188;2024-03-07T08:00:25;44.88;;;21.52;;
31818;SDS011;18384;48.860;9.188;2024-03-07T08:02:55;40.35;;;21.95;;
31818;SDS011;18384;48.860;9.188;2024-03-07T08:05:29;34.50;;;20.95;;
31818;SDS011;18384;48.860;9.188;2024-03-07T08:07:59;32.38;;;21.02;;
31818;SDS011;18384;48.860;9.188;2024-03-07T08:10:38;38.97;;;19.80;;
31818;SDS011;18384;48.860;9.188;2024-03-07T08:13:06;35.45;;;20.48;;
31818;SDS011;18384;48.860;9.188;2024-03-07T08:15:33;30.70;;;19.17;;
31818;SDS011;18384;48.860;9.188;2024-03-07T08:18:00;33.28;;;21.10;;
31818;SDS011;18384;48.860;9.188;2024-03-07T08:20:26;36.75;;;21.65;;
31818;SDS011;18384;48.860;9.188;2024-03-07T08:22:53;37.38;;;21.73;;
31818;SDS011;18384;48.860;9.188;2024-03-07T08:25:21;38.88;;;21.73;;
31818;SDS011;18384;48.860;9.188;2024-03-07T08:27:49;46.22;;;22.48;;
31818;SDS011;18384;48.860;9.188;2024-03-07T08:30:18;45.38;;;20.60;;
31818;SDS011;18384;48.860;9.188;2024-03-07T08:32:46;36.88;;;22.62;;
31818;SDS011;18384;48.860;9.188;2024-03-07T08:35:17;39.35;;;22.08;;
31818;SDS011;18384;48.860;9.188;2024-03-07T08:37:55;34.47;;;21.52;;
31818;SDS011;18384;48.860;9.188;2024-03-07T08:40:23;41.28;;;21.50;;
31818;SDS011;18384;48.860;9.188;2024-03-07T08:42:57;32.25;;;20.35;;
31818;SDS011;18384;48.860;9.188;2024-03-07T08:45:27;36.28;;;21.27;;
31818;SDS011;18384;48.860;9.188;2024-03-07T08:47:55;34.85;;;21.40;;
31818;SDS011;18384;48.860;9.188;2024-03-07T08:50:22;37.28;;;21.55;;
31818;SDS011;18384;48.860;9.188;2024-03-07T08:52:49;33.70;;;21.70;;
31818;SDS011;18384;48.860;9.188;2024-03-07T08:55:17;41.13;;;22.50;;
31818;SDS011;18384;48.860;9.188;2024-03-07T08:57:46;33.95;;;20.95;;
31818;SDS011;18384;48.860;9.188;2024-03-07T09:00:13;38.88;;;21.48;;
31818;SDS011;18384;48.860;9.188;2024-03-07T09:02:53;37.77;;;21.60;;
31818;SDS011;18384;48.860;9.188;2024-03-07T09:05:23;33.75;;;21.50;;
31818;SDS011;18384;48.860;9.188;2024-03-07T09:10:16;39.15;;;21.23;;
31818;SDS011;18384;48.860;9.188;2024-03-07T09:12:42;38.45;;;21.50;;
31818;SDS011;18384;48.860;9.188;2024-03-07T09:15:09;34.53;;;20.75;;
31818;SDS011;18384;48.860;9.188;2024-03-07T09:17:37;35.85;;;21.05;;
31818;SDS011;18384;48.860;9.188;2024-03-07T09:20:04;37.00;;;20.88;;
31818;SDS011;18384;48.860;9.188;2024-03-07T09:22:31;39.35;;;22.90;;
31818;SDS011;18384;48.860;9.188;2024-03-07T09:24:58;42.17;;;22.15;;
31818;SDS011;18384;48.860;9.188;2024-03-07T09:27:24;39.63;;;22.13;;
31818;SDS011;18384;48.860;9.188;2024-03-07T09:29:50;40.50;;;21.02;;
31818;SDS011;18384;48.860;9.188;2024-03-07T09:32:17;34.90;;;21.80;;
31818;SDS011;18384;48.860;9.188;2024-03-07T09:34:43;38.38;;;21.50;;
31818;SDS011;18384;48.860;9.188;2024-03-07T09:37:09;33.42;;;20.20;;
31818;SDS011;18384;48.860;9.188;2024-03-07T09:39:35;37.13;;;21.25;;
31818;SDS011;18384;48.860;9.188;2024-03-07T09:42:02;34.95;;;20.73;;
31818;SDS011;18384;48.860;9.188;2024-03-07T09:44:38;37.05;;;21.67;;
31818;SDS011;18384;48.860;9.188;2024-03-07T09:47:07;35.50;;;21.55;;
31818;SDS011;18384;48.860;9.188;2024-03-07T09:49:34;37.35;;;21.92;;
31818;SDS011;18384;48.860;9.188;2024-03-07T09:52:06;43.55;;;21.55;;
31818;SDS011;18384;48.860;9.188;2024-03-07T09:54:39;37.28;;;22.00;;
31818;SDS011;18384;48.860;9.188;2024-03-07T09:57:05;35.85;;;21.92;;
31818;SDS011;18384;48.860;9.188;2024-03-07T09:59:35;38.88;;;22.23;;
31818;SDS011;18384;48.860;9.188;2024-03-07T10:02:05;42.50;;;23.38;;
31818;SDS011;18384;48.860;9.188;2024-03-07T10:04:37;49.55;;;22.92;;
31818;SDS011;18384;48.860;9.188;2024-03-07T10:07:22;41.22;;;22.75;;
31818;SDS011;18384;48.860;9.188;2024-03-07T10:09:48;33.83;;;21.30;;
31818;SDS011;18384;48.860;9.188;2024-03-07T10:12:17;39.60;;;22.65;;
31818;SDS011;18384;48.860;9.188;2024-03-07T10:14:50;41.40;;;23.77;;
31818;SDS011;18384;48.860;9.188;2024-03-07T10:17:25;43.22;;;22.77;;
31818;SDS011;18384;48.860;9.188;2024-03-07T10:19:51;44.88;;;23.15;;
31818;SDS011;18384;48.860;9.188;2024-03-07T10:22:20;39.85;;;22.58;;
31818;SDS011;18384;48.860;9.188;2024-03-07T10:24:52;39.85;;;22.05;;
31818;SDS011;18384;48.860;9.188;2024-03-07T10:27:21;47.78;;;22.90;;
31818;SDS011;18384;48.860;9.188;2024-03-07T10:29:48;37.58;;;21.17;;
31818;SDS011;18384;48.860;9.188;2024-03-07T10:32:21;38.08;;;22.08;;
31818;SDS011;18384;48.860;9.188;2024-03-07T10:34:53;41.92;;;23.73;;
31818;SDS011;18384;48.860;9.188;2024-03-07T10:38:01;43.25;;;23.35;;
31818;SDS011;18384;48.860;9.188;2024-03-07T10:40:37;52.17;;;23.52;;
31818;SDS011;18384;48.860;9.188;2024-03-07T10:43:09;44.63;;;24.12;;
31818;SDS011;18384;48.860;9.188;2024-03-07T10:45:37;40.33;;;22.83;;
31818;SDS011;18384;48.860;9.188;2024-03-07T10:51:04;37.08;;;21.40;;
31818;SDS011;18384;48.860;9.188;2024-03-07T10:53:54;44.72;;;23.85;;
31818;SDS011;18384;48.860;9.188;2024-03-07T10:58:37;44.85;;;23.15;;
31818;SDS011;18384;48.860;9.188;2024-03-07T11:03:05;36.88;;;22.45;;
31818;SDS011;18384;48.860;9.188;2024-03-07T11:05:32;38.13;;;22.83;;
31818;SDS011;18384;48.860;9.188;2024-03-07T11:08:00;45.80;;;22.98;;
31818;SDS011;18384;48.860;9.188;2024-03-07T11:10:37;45.12;;;24.35;;
31818;SDS011;18384;48.860;9.188;2024-03-07T11:13:08;49.72;;;25.95;;
31818;SDS011;18384;48.860;9.188;2024-03-07T11:15:37;45.85;;;24.80;;
31818;SDS011;18384;48.860;9.188;2024-03-07T11:18:14;44.53;;;25.30;;
31818;SDS011;18384;48.860;9.188;2024-03-07T11:20:41;48.20;;;23.70;;
31818;SDS011;18384;48.860;9.188;2024-03-07T11:23:30;42.38;;;24.37;;
31818;SDS011;18384;48.860;9.188;2024-03-07T11:26:04;43.22;;;23.20;;
31818;SDS011;18384;48.860;9.188;2024-03-07T11:28:34;44.85;;;24.60;;
31818;SDS011;18384;48.860;9.188;2024-03-07T11:31:47;47.13;;;24.83;;
31818;SDS011;18384;48.860;9.188;2024-03-07T11:36:45;39.53;;;22.20;;
31818;SDS011;18384;48.860;9.188;2024-03-07T11:42:28;47.55;;;26.00;;
31818;SDS011;18384;48.860;9.188;2024-03-07T11:45:02;51.88;;;24.60;;
31818;SDS011;18384;48.860;9.188;2024-03-07T11:47:38;42.45;;;23.00;;
31818;SDS011;18384;48.860;9.188;2024-03-07T11:50:05;40.63;;;23.30;;
31818;SDS011;18384;48.860;9.188;2024-03-07T11:52:38;47.22;;;24.33;;
31818;SDS011;18384;48.860;9.188;2024-03-07T11:55:07;39.92;;;22.52;;
31818;SDS011;18384;48.860;9.188;2024-03-07T11:57:33;45.38;;;24.87;;
31818;SDS011;18384;48.860;9.188;2024-03-07T12:00:01;44.33;;;24.60;;
31818;SDS011;18384;48.860;9.188;2024-03-07T12:02:37;43.22;;;24.48;;
31818;SDS011;18384;48.860;9.188;2024-03-07T12:05:04;43.33;;;23.58;;
31818;SDS011;18384;48.860;9.188;2024-03-07T12:07:32;37.55;;;22.55;;
31818;SDS011;18384;48.860;9.188;2024-03-07T12:09:59;43.30;;;22.65;;
31818;SDS011;18384;48.860;9.188;2024-03-07T12:12:29;38.35;;;22.55;;
31818;SDS011;18384;48.860;9.188;2024-03-07T12:14:55;41.47;;;22.90;;
31818;SDS011;18384;48.860;9.188;2024-03-07T12:17:22;40.47;;;22.98;;
31818;SDS011;18384;48.860;9.188;2024-03-07T12:19:49;42.53;;;22.37;;
31818;SDS011;18384;48.860;9.188;2024-03-07T12:22:20;39.35;;;23.17;;
31818;SDS011;18384;48.860;9.188;2024-03-07T12:25:01;48.10;;;23.27;;
31818;SDS011;18384;48.860;9.188;2024-03-07T12:27:30;39.22;;;22.58;;
31818;SDS011;18384;48.860;9.188;2024-03-07T12:32:27;44.15;;;21.75;;
31818;SDS011;18384;48.860;9.188;2024-03-07T12:34:53;47.15;;;23.98;;
31818;SDS011;18384;48.860;9.188;2024-03-07T12:37:19;44.85;;;23.00;;
31818;SDS011;18384;48.860;9.188;2024-03-07T12:39:52;40.58;;;23.85;;
31818;SDS011;18384;48.860;9.188;2024-03-07T12:42:26;40.40;;;22.65;;
31818;SDS011;18384;48.860;9.188;2024-03-07T12:44:57;39.80;;;23.95;;
31818;SDS011;18384;48.860;9.188;2024-03-07T12:47:24;39.90;;;23.05;;
31818;SDS011;18384;48.860;9.188;2024-03-07T12:49:53;41.08;;;24.37;;
31818;SDS011;18384;48.860;9.188;2024-03-07T12:52:20;48.83;;;24.33;;
31818;SDS011;18384;48.860;9.188;2024-03-07T12:54:47;46.13;;;23.35;;
31818;SDS011;18384;48.860;9.188;2024-03-07T12:57:15;42.80;;;23.58;;
31818;SDS011;18384;48.860;9.188;2024-03-07T12:59:42;43.17;;;23.27;;
31818;SDS011;18384;48.860;9.188;2024-03-07T13:02:08;36.15;;;21.42;;
31818;SDS011;18384;48.860;9.188;2024-03-07T13:04:36;40.70;;;22.52;;
31818;SDS011;18384;48.860;9.188;2024-03-07T13:07:03;38.55;;;22.85;;
31818;SDS011;18384;48.860;9.188;2024-03-07T13:09:30;36.45;;;21.87;;
31818;SDS011;18384;48.860;9.188;2024-03-07T13:12:00;40.35;;;21.70;;
31818;SDS011;18384;48.860;9.188;2024-03-07T13:14:28;39.60;;;21.90;;
31818;SDS011;18384;48.860;9.188;2024-03-07T13:16:59;40.67;;;23.25;;
31818;SDS011;18384;48.860;9.188;2024-03-07T13:19:28;35.97;;;21.52;;
31818;SDS011;18384;48.860;9.188;2024-03-07T13:21:55;37.10;;;21.80;;
31818;SDS011;18384;48.860;9.188;2024-03-07T13:24:22;40.42;;;21.62;;
31818;SDS011;18384;48.860;9.188;2024-03-07T13:26:49;42.95;;;23.08;;
31818;SDS011;18384;48.860;9.188;2024-03-07T13:29:15;39.47;;;21.90;;
31818;SDS011;18384;48.860;9.188;2024-03-07T13:31:42;35.28;;;21.48;;
31818;SDS011;18384;48.860;9.188;2024-03-07T13:34:10;40.85;;;24.05;;
31818;SDS011;18384;48.860;9.188;2024-03-07T13:36:40;41.67;;;22.90;;
31818;SDS011;18384;48.860;9.188;2024-03-07T13:39:08;37.30;;;22.92;;
31818;SDS011;18384;48.860;9.188;2024-03-07T13:41:45;38.15;;;24.15;;
31818;SDS011;18384;48.860;9.188;2024-03-07T13:44:16;50.15;;;23.98;;
31818;SDS011;18384;48.860;9.188;2024-03-07T13:46:44;53.53;;;25.55;;
31818;SDS011;18384;48.860;9.188;2024-03-07T13:49:10;42.53;;;23.60;;
31818;SDS011;18384;48.860;9.188;2024-03-07T13:51:39;44.13;;;25.42;;
31818;SDS011;18384;48.860;9.188;2024-03-07T13:54:18;43.05;;;22.80;;
31818;SDS011;18384;48.860;9.188;2024-03-07T13:57:15;48.08;;;26.30;;
31818;SDS011;18384;48.860;9.188;2024-03-07T14:00:18;47.30;;;27.25;;
31818;SDS011;18384;48.860;9.188;2024-03-07T14:06:38;42.03;;;24.55;;
31818;SDS011;18384;48.860;9.188;2024-03-07T14:09:43;44.22;;;23.98;;
31818;SDS011;18384;48.860;9.188;2024-03-07T14:16:13;45.00;;;23.98;;
31818;SDS011;18384;48.860;9.188;2024-03-07T14:22:02;42.15;;;23.50;;
31818;SDS011;18384;48.860;9.188;2024-03-07T14:27:38;50.38;;;26.35;;
31818;SDS011;18384;48.860;9.188;2024-03-07T14:32:51;46.35;;;24.02;;
31818;SDS011;18384;48.860;9.188;2024-03-07T14:35:32;45.60;;;24.40;;
31818;SDS011;18384;48.860;9.188;2024-03-07T14:38:52;43.72;;;22.65;;
31818;SDS011;18384;48.860;9.188;2024-03-07T14:41:20;41.15;;;23.38;;
31818;SDS011;18384;48.860;9.188;2024-03-07T14:44:09;41.53;;;23.85;;
31818;SDS011;18384;48.860;9.188;2024-03-07T14:46:36;42.90;;;23.30;;
31818;SDS011;18384;48.860;9.188;2024-03-07T14:49:02;43.80;;;23.80;;
31818;SDS011;18384;48.860;9.188;2024-03-07T14:51:29;44.42;;;23.17;;
31818;SDS011;18384;48.860;9.188;2024-03-07T14:53:55;44.55;;;22.87;;
31818;SDS011;18384;48.860;9.188;2024-03-07T14:56:22;37.60;;;22.05;;
31818;SDS011;18384;48.860;9.188;2024-03-07T14:58:48;39.70;;;22.05;;
31818;SDS011;18384;48.860;9.188;2024-03-07T15:01:14;46.33;;;21.52;;
31818;SDS011;18384;48.860;9.188;2024-03-07T15:03:41;40.47;;;22.52;;
31818;SDS011;18384;48.860;9.188;2024-03-07T15:06:10;41.28;;;22.13;;
31818;SDS011;18384;48.860;9.188;2024-03-07T15:08:40;34.80;;;19.90;;
31818;SDS011;18384;48.860;9.188;2024-03-07T15:11:11;37.67;;;21.30;;
31818;SDS011;18384;48.860;9.188;2024-03-07T15:13:49;42.72;;;20.77;;
31818;SDS011;18384;48.860;9.188;2024-03-07T15:16:15;36.85;;;21.00;;
31818;SDS011;18384;48.860;9.188;2024-03-07T15:18:42;38.03;;;22.23;;
31818;SDS011;18384;48.860;9.188;2024-03-07T15:21:09;38.85;;;20.48;;
31818;SDS011;18384;48.860;9.188;2024-03-07T15:23:40;35.80;;;20.40;;
31818;SDS011;18384;48.860;9.188;2024-03-07T15:26:17;36.65;;;20.75;;
31818;SDS011;18384;48.860;9.188;2024-03-07T15:28:43;36.78;;;20.40;;
31818;SDS011;18384;48.860;9.188;2024-03-07T15:31:10;39.10;;;20.62;;